sensor_id;sensor_type;location;lat;lon;timestamp;temperature;humidity
12225;DHT22;6175;50.956;11.064;2022-08-03T00:02:54;18.70;88.30
12225;DHT22;6175;50.956;11.064;2022-08-03T00:15:10;18.70;87.40
12225;DHT22;6175;50.956;11.064;2022-08-03T00:34:50;18.70;88.60
12225;DHT22;6175;50.956;11.064;2022-08-03T00:37:18;18.60;88.60
12225;DHT22;6175;50.956;11.064;2022-08-03T00:44:41;18.70;89.80
12225;DHT22;6175;50.956;11.064;2022-08-03T00:47:08;18.60;89.70
12225;DHT22;6175;50.956;11.064;2022-08-03T00:52:04;18.60;89.70
12225;DHT22;6175;50.956;11.064;2022-08-03T00:54:33;18.60;89.40
12225;DHT22;6175;50.956;11.064;2022-08-03T00:59:29;18.60;89.50
12225;DHT22;6175;50.956;11.064;2022-08-03T01:06:59;18.70;88.70
12225;DHT22;6175;50.956;11.064;2022-08-03T01:12:09;18.60;89.20
12225;DHT22;6175;50.956;11.064;2022-08-03T01:14:45;18.60;88.80
12225;DHT22;6175;50.956;11.064;2022-08-03T01:17:20;18.50;88.60
12225;DHT22;6175;50.956;11.064;2022-08-03T01:19:51;18.50;89.50
12225;DHT22;6175;50.956;11.064;2022-08-03T01:22:36;18.50;88.80
12225;DHT22;6175;50.956;11.064;2022-08-03T01:25:12;18.50;88.90
12225;DHT22;6175;50.956;11.064;2022-08-03T01:27:53;18.40;88.90
12225;DHT22;6175;50.956;11.064;2022-08-03T01:30:29;18.40;88.40
12225;DHT22;6175;50.956;11.064;2022-08-03T01:32:59;18.40;88.30
12225;DHT22;6175;50.956;11.064;2022-08-03T01:35:31;18.40;89.30
12225;DHT22;6175;50.956;11.064;2022-08-03T01:38:02;18.30;89.60
12225;DHT22;6175;50.956;11.064;2022-08-03T01:40:31;18.30;89.60
12225;DHT22;6175;50.956;11.064;2022-08-03T01:43:01;18.30;89.80
12225;DHT22;6175;50.956;11.064;2022-08-03T01:45:31;18.30;90.30
12225;DHT22;6175;50.956;11.064;2022-08-03T01:50:29;18.20;90.70
12225;DHT22;6175;50.956;11.064;2022-08-03T01:52:57;18.10;90.90
12225;DHT22;6175;50.956;11.064;2022-08-03T01:55:25;18.10;91.20
12225;DHT22;6175;50.956;11.064;2022-08-03T01:57:54;18.00;91.40
12225;DHT22;6175;50.956;11.064;2022-08-03T02:00:22;18.00;91.50
12225;DHT22;6175;50.956;11.064;2022-08-03T02:02:53;17.90;91.80
12225;DHT22;6175;50.956;11.064;2022-08-03T02:05:21;17.90;92.00
12225;DHT22;6175;50.956;11.064;2022-08-03T02:07:49;17.80;92.40
12225;DHT22;6175;50.956;11.064;2022-08-03T02:10:18;17.80;92.60
12225;DHT22;6175;50.956;11.064;2022-08-03T02:12:47;17.70;92.60
12225;DHT22;6175;50.956;11.064;2022-08-03T02:15:15;17.70;92.50
12225;DHT22;6175;50.956;11.064;2022-08-03T02:17:45;17.60;92.80
12225;DHT22;6175;50.956;11.064;2022-08-03T02:20:14;17.70;92.80
12225;DHT22;6175;50.956;11.064;2022-08-03T02:22:42;17.70;92.80
12225;DHT22;6175;50.956;11.064;2022-08-03T02:25:12;17.60;93.00
12225;DHT22;6175;50.956;11.064;2022-08-03T02:30:28;17.60;93.60
12225;DHT22;6175;50.956;11.064;2022-08-03T02:32:57;18.90;94.10
12225;DHT22;6175;50.956;11.064;2022-08-03T02:35:28;17.50;93.90
12225;DHT22;6175;50.956;11.064;2022-08-03T02:37:58;17.40;94.10
12225;DHT22;6175;50.956;11.064;2022-08-03T02:40:28;19.90;95.00
12225;DHT22;6175;50.956;11.064;2022-08-03T02:42:59;17.40;94.50
12225;DHT22;6175;50.956;11.064;2022-08-03T02:45:27;17.40;94.60
12225;DHT22;6175;50.956;11.064;2022-08-03T02:47:58;17.40;94.80
12225;DHT22;6175;50.956;11.064;2022-08-03T02:50:28;17.30;94.90
12225;DHT22;6175;50.956;11.064;2022-08-03T02:52:57;17.30;95.10
12225;DHT22;6175;50.956;11.064;2022-08-03T02:55:26;17.30;95.30
12225;DHT22;6175;50.956;11.064;2022-08-03T02:57:54;17.20;95.60
12225;DHT22;6175;50.956;11.064;2022-08-03T03:02:50;17.10;95.80
12225;DHT22;6175;50.956;11.064;2022-08-03T03:05:18;17.10;96.00
12225;DHT22;6175;50.956;11.064;2022-08-03T03:07:47;17.10;96.10
12225;DHT22;6175;50.956;11.064;2022-08-03T03:10:14;17.00;96.30
12225;DHT22;6175;50.956;11.064;2022-08-03T03:12:42;17.00;96.50
12225;DHT22;6175;50.956;11.064;2022-08-03T03:20:07;17.00;97.00
12225;DHT22;6175;50.956;11.064;2022-08-03T03:22:35;16.90;97.00
12225;DHT22;6175;50.956;11.064;2022-08-03T03:27:33;16.90;97.30
12225;DHT22;6175;50.956;11.064;2022-08-03T03:30:01;19.60;98.10
12225;DHT22;6175;50.956;11.064;2022-08-03T03:32:28;16.90;97.30
12225;DHT22;6175;50.956;11.064;2022-08-03T03:39:52;16.90;97.20
12225;DHT22;6175;50.956;11.064;2022-08-03T03:59:38;17.00;97.50
12225;DHT22;6175;50.956;11.064;2022-08-03T04:04:33;17.00;97.60
12225;DHT22;6175;50.956;11.064;2022-08-03T04:10:07;17.00;97.60
12225;DHT22;6175;50.956;11.064;2022-08-03T04:12:55;17.10;97.90
12225;DHT22;6175;50.956;11.064;2022-08-03T04:15:26;17.00;98.10
12225;DHT22;6175;50.956;11.064;2022-08-03T04:17:56;17.00;98.60
12225;DHT22;6175;50.956;11.064;2022-08-03T04:20:27;16.90;98.70
12225;DHT22;6175;50.956;11.064;2022-08-03T04:22:55;16.90;99.10
12225;DHT22;6175;50.956;11.064;2022-08-03T04:25:26;16.80;99.20
12225;DHT22;6175;50.956;11.064;2022-08-03T04:27:54;16.80;99.40
12225;DHT22;6175;50.956;11.064;2022-08-03T04:30:25;16.80;99.60
12225;DHT22;6175;50.956;11.064;2022-08-03T04:32:54;16.90;99.80
12225;DHT22;6175;50.956;11.064;2022-08-03T04:35:23;16.80;99.90
12225;DHT22;6175;50.956;11.064;2022-08-03T04:37:51;16.90;99.90
12225;DHT22;6175;50.956;11.064;2022-08-03T04:40:25;16.90;99.90
12225;DHT22;6175;50.956;11.064;2022-08-03T04:42:54;17.00;99.90
12225;DHT22;6175;50.956;11.064;2022-08-03T04:47:51;17.20;99.90
12225;DHT22;6175;50.956;11.064;2022-08-03T04:55:24;17.40;99.90
12225;DHT22;6175;50.956;11.064;2022-08-03T05:05:15;17.90;99.90
12225;DHT22;6175;50.956;11.064;2022-08-03T05:07:42;18.00;99.90
12225;DHT22;6175;50.956;11.064;2022-08-03T05:10:11;20.40;99.90
12225;DHT22;6175;50.956;11.064;2022-08-03T05:12:39;21.50;99.90
12225;DHT22;6175;50.956;11.064;2022-08-03T05:15:07;18.40;99.90
12225;DHT22;6175;50.956;11.064;2022-08-03T05:20:02;18.80;99.90
12225;DHT22;6175;50.956;11.064;2022-08-03T05:24:59;19.20;99.10
12225;DHT22;6175;50.956;11.064;2022-08-03T05:29:54;19.60;97.60
12225;DHT22;6175;50.956;11.064;2022-08-03T05:37:15;19.90;95.30
12225;DHT22;6175;50.956;11.064;2022-08-03T05:39:43;20.10;94.90
12225;DHT22;6175;50.956;11.064;2022-08-03T05:52:01;20.70;93.80
12225;DHT22;6175;50.956;11.064;2022-08-03T05:54:28;20.90;93.40
12225;DHT22;6175;50.956;11.064;2022-08-03T05:59:23;21.10;92.50
12225;DHT22;6175;50.956;11.064;2022-08-03T06:01:51;21.20;92.40
12225;DHT22;6175;50.956;11.064;2022-08-03T06:06:45;21.40;92.20
12225;DHT22;6175;50.956;11.064;2022-08-03T06:11:40;21.60;91.30
12225;DHT22;6175;50.956;11.064;2022-08-03T06:14:08;21.70;91.30
12225;DHT22;6175;50.956;11.064;2022-08-03T06:19:02;22.00;90.20
12225;DHT22;6175;50.956;11.064;2022-08-03T06:26:26;22.10;88.60
12225;DHT22;6175;50.956;11.064;2022-08-03T06:31:24;22.20;87.50
12225;DHT22;6175;50.956;11.064;2022-08-03T06:41:15;22.50;86.00
12225;DHT22;6175;50.956;11.064;2022-08-03T06:46:09;22.80;85.50
12225;DHT22;6175;50.956;11.064;2022-08-03T06:48:38;22.90;84.80
12225;DHT22;6175;50.956;11.064;2022-08-03T07:00:54;23.30;82.50
12225;DHT22;6175;50.956;11.064;2022-08-03T07:05:49;23.50;82.00
12225;DHT22;6175;50.956;11.064;2022-08-03T07:08:17;23.50;82.00
12225;DHT22;6175;50.956;11.064;2022-08-03T07:27:57;24.40;79.20
12225;DHT22;6175;50.956;11.064;2022-08-03T07:35:19;24.70;78.30
12225;DHT22;6175;50.956;11.064;2022-08-03T07:42:43;25.10;76.40
12225;DHT22;6175;50.956;11.064;2022-08-03T07:45:10;25.20;75.70
12225;DHT22;6175;50.956;11.064;2022-08-03T07:47:37;25.30;76.00
12225;DHT22;6175;50.956;11.064;2022-08-03T07:50:05;25.30;75.10
12225;DHT22;6175;50.956;11.064;2022-08-03T07:55:19;25.50;75.00
12225;DHT22;6175;50.956;11.064;2022-08-03T07:57:46;25.70;74.90
12225;DHT22;6175;50.956;11.064;2022-08-03T08:00:16;25.70;74.20
12225;DHT22;6175;50.956;11.064;2022-08-03T08:02:43;25.90;74.10
12225;DHT22;6175;50.956;11.064;2022-08-03T08:07:39;26.10;73.30
12225;DHT22;6175;50.956;11.064;2022-08-03T08:10:08;26.20;72.60
12225;DHT22;6175;50.956;11.064;2022-08-03T08:12:37;26.30;72.30
12225;DHT22;6175;50.956;11.064;2022-08-03T08:15:06;26.40;71.90
12225;DHT22;6175;50.956;11.064;2022-08-03T08:17:41;26.50;72.10
12225;DHT22;6175;50.956;11.064;2022-08-03T08:20:09;26.70;70.50
12225;DHT22;6175;50.956;11.064;2022-08-03T08:25:04;26.90;70.20
12225;DHT22;6175;50.956;11.064;2022-08-03T08:30:03;27.20;68.30
12225;DHT22;6175;50.956;11.064;2022-08-03T08:47:17;27.90;63.10
12225;DHT22;6175;50.956;11.064;2022-08-03T08:49:45;28.10;62.70
12225;DHT22;6175;50.956;11.064;2022-08-03T08:54:43;28.20;61.70
12225;DHT22;6175;50.956;11.064;2022-08-03T08:57:11;28.30;61.20
12225;DHT22;6175;50.956;11.064;2022-08-03T08:59:38;28.40;61.00
12225;DHT22;6175;50.956;11.064;2022-08-03T09:02:05;28.60;60.20
12225;DHT22;6175;50.956;11.064;2022-08-03T09:09:30;28.90;57.90
12225;DHT22;6175;50.956;11.064;2022-08-03T09:11:56;28.80;58.70
12225;DHT22;6175;50.956;11.064;2022-08-03T09:14:23;28.90;58.60
12225;DHT22;6175;50.956;11.064;2022-08-03T09:16:57;29.00;59.00
12225;DHT22;6175;50.956;11.064;2022-08-03T09:19:28;29.10;57.80
12225;DHT22;6175;50.956;11.064;2022-08-03T09:22:08;29.10;56.70
12225;DHT22;6175;50.956;11.064;2022-08-03T09:24:36;29.10;56.60
12225;DHT22;6175;50.956;11.064;2022-08-03T09:27:05;29.20;56.20
12225;DHT22;6175;50.956;11.064;2022-08-03T09:29:37;29.30;55.80
12225;DHT22;6175;50.956;11.064;2022-08-03T09:34:31;29.60;54.70
12225;DHT22;6175;50.956;11.064;2022-08-03T09:36:58;29.80;53.50
12225;DHT22;6175;50.956;11.064;2022-08-03T09:39:27;29.80;52.40
12225;DHT22;6175;50.956;11.064;2022-08-03T09:42:07;29.80;51.70
12225;DHT22;6175;50.956;11.064;2022-08-03T09:44:35;29.90;52.70
12225;DHT22;6175;50.956;11.064;2022-08-03T09:47:03;29.80;52.10
12225;DHT22;6175;50.956;11.064;2022-08-03T09:52:00;30.10;51.90
12225;DHT22;6175;50.956;11.064;2022-08-03T09:54:31;30.20;51.10
12225;DHT22;6175;50.956;11.064;2022-08-03T10:04:21;30.80;46.30
12225;DHT22;6175;50.956;11.064;2022-08-03T10:07:03;30.90;46.40
12225;DHT22;6175;50.956;11.064;2022-08-03T10:09:32;31.10;45.10
12225;DHT22;6175;50.956;11.064;2022-08-03T10:12:07;31.10;45.10
12225;DHT22;6175;50.956;11.064;2022-08-03T10:14:36;33.60;47.90
12225;DHT22;6175;50.956;11.064;2022-08-03T10:17:03;31.40;45.40
12225;DHT22;6175;50.956;11.064;2022-08-03T10:22:03;31.90;43.90
12225;DHT22;6175;50.956;11.064;2022-08-03T10:24:34;32.00;43.10
12225;DHT22;6175;50.956;11.064;2022-08-03T10:27:05;31.90;43.60
12225;DHT22;6175;50.956;11.064;2022-08-03T10:29:36;31.90;43.10
12225;DHT22;6175;50.956;11.064;2022-08-03T10:32:09;31.80;43.20
12225;DHT22;6175;50.956;11.064;2022-08-03T10:34:39;31.90;43.50
12225;DHT22;6175;50.956;11.064;2022-08-03T10:37:10;31.90;42.70
12225;DHT22;6175;50.956;11.064;2022-08-03T10:39:38;32.00;43.20
12225;DHT22;6175;50.956;11.064;2022-08-03T10:42:19;32.20;42.70
12225;DHT22;6175;50.956;11.064;2022-08-03T10:44:49;32.20;40.80
12225;DHT22;6175;50.956;11.064;2022-08-03T10:47:18;32.20;40.90
12225;DHT22;6175;50.956;11.064;2022-08-03T10:49:47;32.20;41.30
12225;DHT22;6175;50.956;11.064;2022-08-03T10:54:44;32.30;40.60
12225;DHT22;6175;50.956;11.064;2022-08-03T10:57:46;32.10;40.40
12225;DHT22;6175;50.956;11.064;2022-08-03T11:00:14;32.20;40.70
12225;DHT22;6175;50.956;11.064;2022-08-03T11:03:01;32.50;40.70
12225;DHT22;6175;50.956;11.064;2022-08-03T11:05:30;32.80;40.40
12225;DHT22;6175;50.956;11.064;2022-08-03T11:08:18;32.90;38.50
12225;DHT22;6175;50.956;11.064;2022-08-03T11:10:48;33.00;38.20
12225;DHT22;6175;50.956;11.064;2022-08-03T11:13:16;33.00;38.50
12225;DHT22;6175;50.956;11.064;2022-08-03T11:15:44;33.10;39.70
12225;DHT22;6175;50.956;11.064;2022-08-03T11:18:13;33.20;38.60
12225;DHT22;6175;50.956;11.064;2022-08-03T11:26:08;33.30;37.80
12225;DHT22;6175;50.956;11.064;2022-08-03T11:34:23;33.50;37.70
12225;DHT22;6175;50.956;11.064;2022-08-03T11:37:22;33.50;37.40
12225;DHT22;6175;50.956;11.064;2022-08-03T11:39:52;33.60;37.50
12225;DHT22;6175;50.956;11.064;2022-08-03T11:42:41;33.90;37.20
12225;DHT22;6175;50.956;11.064;2022-08-03T11:47:40;34.00;37.20
12225;DHT22;6175;50.956;11.064;2022-08-03T11:50:08;34.00;36.70
12225;DHT22;6175;50.956;11.064;2022-08-03T11:52:38;34.20;36.60
12225;DHT22;6175;50.956;11.064;2022-08-03T11:55:10;34.30;36.00
12225;DHT22;6175;50.956;11.064;2022-08-03T12:00:23;34.40;36.50
12225;DHT22;6175;50.956;11.064;2022-08-03T12:02:58;34.60;37.50
12225;DHT22;6175;50.956;11.064;2022-08-03T12:05:42;34.70;35.80
12225;DHT22;6175;50.956;11.064;2022-08-03T12:08:10;34.70;35.60
12225;DHT22;6175;50.956;11.064;2022-08-03T12:10:38;34.80;35.40
12225;DHT22;6175;50.956;11.064;2022-08-03T12:15:36;34.70;36.20
12225;DHT22;6175;50.956;11.064;2022-08-03T12:18:14;34.80;35.50
12225;DHT22;6175;50.956;11.064;2022-08-03T12:20:42;30.10;32.00
12225;DHT22;6175;50.956;11.064;2022-08-03T12:23:10;34.80;35.40
12225;DHT22;6175;50.956;11.064;2022-08-03T12:25:38;34.80;35.30
12225;DHT22;6175;50.956;11.064;2022-08-03T12:28:14;34.70;36.40
12225;DHT22;6175;50.956;11.064;2022-08-03T12:30:46;34.70;35.90
12225;DHT22;6175;50.956;11.064;2022-08-03T12:33:18;34.80;35.60
12225;DHT22;6175;50.956;11.064;2022-08-03T12:38:19;34.90;35.50
12225;DHT22;6175;50.956;11.064;2022-08-03T12:41:01;35.10;35.20
12225;DHT22;6175;50.956;11.064;2022-08-03T12:46:09;35.50;34.90
12225;DHT22;6175;50.956;11.064;2022-08-03T12:51:07;35.50;34.40
12225;DHT22;6175;50.956;11.064;2022-08-03T12:53:35;35.50;34.30
12225;DHT22;6175;50.956;11.064;2022-08-03T12:56:03;35.80;34.10
12225;DHT22;6175;50.956;11.064;2022-08-03T12:58:32;36.20;33.50
12225;DHT22;6175;50.956;11.064;2022-08-03T13:03:38;36.20;33.90
12225;DHT22;6175;50.956;11.064;2022-08-03T13:06:10;36.20;33.40
12225;DHT22;6175;50.956;11.064;2022-08-03T13:08:37;36.30;33.70
12225;DHT22;6175;50.956;11.064;2022-08-03T13:11:20;36.30;33.60
12225;DHT22;6175;50.956;11.064;2022-08-03T13:16:15;36.60;33.20
12225;DHT22;6175;50.956;11.064;2022-08-03T13:18:43;36.70;33.00
12225;DHT22;6175;50.956;11.064;2022-08-03T13:21:12;36.70;32.80
12225;DHT22;6175;50.956;11.064;2022-08-03T13:23:40;36.70;32.60
12225;DHT22;6175;50.956;11.064;2022-08-03T13:26:07;36.60;32.50
12225;DHT22;6175;50.956;11.064;2022-08-03T13:28:34;36.60;32.80
12225;DHT22;6175;50.956;11.064;2022-08-03T13:33:31;36.80;32.80
12225;DHT22;6175;50.956;11.064;2022-08-03T13:43:21;36.20;32.90
12225;DHT22;6175;50.956;11.064;2022-08-03T13:48:15;35.70;33.20
12225;DHT22;6175;50.956;11.064;2022-08-03T13:50:42;35.40;33.60
12225;DHT22;6175;50.956;11.064;2022-08-03T13:53:10;35.20;34.30
12225;DHT22;6175;50.956;11.064;2022-08-03T14:00:36;35.30;34.60
12225;DHT22;6175;50.956;11.064;2022-08-03T14:17:53;36.70;32.80
12225;DHT22;6175;50.956;11.064;2022-08-03T14:22:47;37.20;32.30
12225;DHT22;6175;50.956;11.064;2022-08-03T14:25:15;37.30;32.10
12225;DHT22;6175;50.956;11.064;2022-08-03T14:27:43;37.00;32.30
12225;DHT22;6175;50.956;11.064;2022-08-03T14:30:12;36.90;32.50
12225;DHT22;6175;50.956;11.064;2022-08-03T14:32:39;37.10;32.50
12225;DHT22;6175;50.956;11.064;2022-08-03T14:35:07;37.60;32.10
12225;DHT22;6175;50.956;11.064;2022-08-03T14:37:34;38.10;31.50
12225;DHT22;6175;50.956;11.064;2022-08-03T14:40:02;38.80;30.80
12225;DHT22;6175;50.956;11.064;2022-08-03T14:42:28;39.30;30.40
12225;DHT22;6175;50.956;11.064;2022-08-03T14:44:58;39.60;29.90
12225;DHT22;6175;50.956;11.064;2022-08-03T14:52:20;39.90;29.50
12225;DHT22;6175;50.956;11.064;2022-08-03T14:59:42;40.60;29.00
12225;DHT22;6175;50.956;11.064;2022-08-03T15:09:32;42.20;27.60
12225;DHT22;6175;50.956;11.064;2022-08-03T15:12:00;42.40;27.60
12225;DHT22;6175;50.956;11.064;2022-08-03T15:21:49;43.40;26.70
12225;DHT22;6175;50.956;11.064;2022-08-03T15:24:16;43.50;26.50
12225;DHT22;6175;50.956;11.064;2022-08-03T15:26:43;42.90;26.60
12225;DHT22;6175;50.956;11.064;2022-08-03T15:29:10;42.90;26.40
12225;DHT22;6175;50.956;11.064;2022-08-03T15:31:38;42.90;26.40
12225;DHT22;6175;50.956;11.064;2022-08-03T15:34:04;43.10;26.50
12225;DHT22;6175;50.956;11.064;2022-08-03T15:36:33;43.50;25.90
12225;DHT22;6175;50.956;11.064;2022-08-03T15:39:00;44.00;25.80
12225;DHT22;6175;50.956;11.064;2022-08-03T15:41:27;44.30;25.40
12225;DHT22;6175;50.956;11.064;2022-08-03T15:43:54;44.80;25.30
12225;DHT22;6175;50.956;11.064;2022-08-03T15:46:21;45.40;25.00
12225;DHT22;6175;50.956;11.064;2022-08-03T15:48:48;45.70;25.10
12225;DHT22;6175;50.956;11.064;2022-08-03T15:51:15;48.50;25.60
12225;DHT22;6175;50.956;11.064;2022-08-03T15:53:43;45.30;24.30
12225;DHT22;6175;50.956;11.064;2022-08-03T15:56:11;45.10;24.40
12225;DHT22;6175;50.956;11.064;2022-08-03T15:58:38;45.10;24.70
12225;DHT22;6175;50.956;11.064;2022-08-03T16:01:06;45.00;24.60
12225;DHT22;6175;50.956;11.064;2022-08-03T16:06:01;45.20;24.60
12225;DHT22;6175;50.956;11.064;2022-08-03T16:08:29;45.30;24.30
12225;DHT22;6175;50.956;11.064;2022-08-03T16:10:58;45.60;24.30
12225;DHT22;6175;50.956;11.064;2022-08-03T16:13:26;45.90;23.90
12225;DHT22;6175;50.956;11.064;2022-08-03T16:15:53;46.20;23.50
12225;DHT22;6175;50.956;11.064;2022-08-03T16:18:20;46.40;23.50
12225;DHT22;6175;50.956;11.064;2022-08-03T16:20:47;46.60;23.40
12225;DHT22;6175;50.956;11.064;2022-08-03T16:23:15;47.00;23.20
12225;DHT22;6175;50.956;11.064;2022-08-03T16:25:43;47.20;22.90
12225;DHT22;6175;50.956;11.064;2022-08-03T16:28:12;47.20;22.80
12225;DHT22;6175;50.956;11.064;2022-08-03T16:30:39;47.30;22.90
12225;DHT22;6175;50.956;11.064;2022-08-03T16:33:06;47.30;22.80
12225;DHT22;6175;50.956;11.064;2022-08-03T16:38:01;46.80;22.90
12225;DHT22;6175;50.956;11.064;2022-08-03T16:40:28;46.40;23.10
12225;DHT22;6175;50.956;11.064;2022-08-03T16:42:55;45.80;23.40
12225;DHT22;6175;50.956;11.064;2022-08-03T16:45:24;45.60;23.50
12225;DHT22;6175;50.956;11.064;2022-08-03T16:47:51;45.50;23.70
12225;DHT22;6175;50.956;11.064;2022-08-03T16:50:17;45.30;23.60
12225;DHT22;6175;50.956;11.064;2022-08-03T16:52:45;45.30;23.70
12225;DHT22;6175;50.956;11.064;2022-08-03T16:55:12;45.20;23.80
12225;DHT22;6175;50.956;11.064;2022-08-03T16:57:40;45.40;23.80
12225;DHT22;6175;50.956;11.064;2022-08-03T17:00:08;45.20;23.70
12225;DHT22;6175;50.956;11.064;2022-08-03T17:02:37;44.90;23.60
12225;DHT22;6175;50.956;11.064;2022-08-03T17:05:07;44.60;24.00
12225;DHT22;6175;50.956;11.064;2022-08-03T17:10:01;44.60;23.90
12225;DHT22;6175;50.956;11.064;2022-08-03T17:14:55;44.40;24.00
12225;DHT22;6175;50.956;11.064;2022-08-03T17:17:26;44.20;24.20
12225;DHT22;6175;50.956;11.064;2022-08-03T17:22:26;44.30;24.50
12225;DHT22;6175;50.956;11.064;2022-08-03T17:24:53;44.30;24.30
12225;DHT22;6175;50.956;11.064;2022-08-03T17:27:24;43.80;24.30
12225;DHT22;6175;50.956;11.064;2022-08-03T17:29:58;42.70;25.00
12225;DHT22;6175;50.956;11.064;2022-08-03T17:34:54;40.00;27.00
12225;DHT22;6175;50.956;11.064;2022-08-03T17:39:50;37.80;28.90
12225;DHT22;6175;50.956;11.064;2022-08-03T17:44:46;36.20;30.30
12225;DHT22;6175;50.956;11.064;2022-08-03T17:52:14;34.70;32.20
12225;DHT22;6175;50.956;11.064;2022-08-03T17:54:46;34.30;32.90
12225;DHT22;6175;50.956;11.064;2022-08-03T17:57:25;34.00;33.20
12225;DHT22;6175;50.956;11.064;2022-08-03T17:59:59;33.80;33.60
12225;DHT22;6175;50.956;11.064;2022-08-03T18:02:54;33.50;34.00
12225;DHT22;6175;50.956;11.064;2022-08-03T18:05:40;33.30;34.90
12225;DHT22;6175;50.956;11.064;2022-08-03T18:08:10;31.50;34.20
12225;DHT22;6175;50.956;11.064;2022-08-03T18:10:38;33.00;36.50
12225;DHT22;6175;50.956;11.064;2022-08-03T18:13:08;32.90;36.50
12225;DHT22;6175;50.956;11.064;2022-08-03T18:15:38;32.70;36.10
12225;DHT22;6175;50.956;11.064;2022-08-03T18:18:10;32.70;37.30
12225;DHT22;6175;50.956;11.064;2022-08-03T18:23:10;32.40;36.20
12225;DHT22;6175;50.956;11.064;2022-08-03T18:25:39;32.40;36.50
12225;DHT22;6175;50.956;11.064;2022-08-03T18:28:07;32.30;37.10
12225;DHT22;6175;50.956;11.064;2022-08-03T18:30:41;32.20;37.40
12225;DHT22;6175;50.956;11.064;2022-08-03T18:33:10;32.00;38.60
12225;DHT22;6175;50.956;11.064;2022-08-03T18:35:38;31.90;38.90
12225;DHT22;6175;50.956;11.064;2022-08-03T18:40:36;31.60;39.60
12225;DHT22;6175;50.956;11.064;2022-08-03T18:45:35;31.30;40.80
12225;DHT22;6175;50.956;11.064;2022-08-03T18:48:06;31.20;41.40
12225;DHT22;6175;50.956;11.064;2022-08-03T18:50:40;31.00;41.60
12225;DHT22;6175;50.956;11.064;2022-08-03T18:53:14;30.80;42.00
12225;DHT22;6175;50.956;11.064;2022-08-03T18:55:46;30.60;42.30
12225;DHT22;6175;50.956;11.064;2022-08-03T18:58:20;30.40;42.80
12225;DHT22;6175;50.956;11.064;2022-08-03T19:00:56;30.20;43.10
12225;DHT22;6175;50.956;11.064;2022-08-03T19:03:24;30.00;43.50
12225;DHT22;6175;50.956;11.064;2022-08-03T19:05:57;29.90;44.00
12225;DHT22;6175;50.956;11.064;2022-08-03T19:08:29;29.70;44.40
12225;DHT22;6175;50.956;11.064;2022-08-03T19:11:03;29.60;44.60
12225;DHT22;6175;50.956;11.064;2022-08-03T19:13:37;29.40;44.90
12225;DHT22;6175;50.956;11.064;2022-08-03T19:16:08;29.40;45.30
12225;DHT22;6175;50.956;11.064;2022-08-03T19:18:44;29.20;45.80
12225;DHT22;6175;50.956;11.064;2022-08-03T19:21:13;29.10;46.20
12225;DHT22;6175;50.956;11.064;2022-08-03T19:23:44;29.00;46.40
12225;DHT22;6175;50.956;11.064;2022-08-03T19:26:14;28.90;46.60
12225;DHT22;6175;50.956;11.064;2022-08-03T19:31:10;28.80;46.50
12225;DHT22;6175;50.956;11.064;2022-08-03T19:33:38;28.80;47.00
12225;DHT22;6175;50.956;11.064;2022-08-03T19:36:08;28.60;47.40
12225;DHT22;6175;50.956;11.064;2022-08-03T19:43:37;28.40;48.40
12225;DHT22;6175;50.956;11.064;2022-08-03T19:46:10;28.30;48.40
12225;DHT22;6175;50.956;11.064;2022-08-03T19:48:38;28.30;48.30
12225;DHT22;6175;50.956;11.064;2022-08-03T19:51:08;28.20;48.30
12225;DHT22;6175;50.956;11.064;2022-08-03T19:53:40;28.10;48.80
12225;DHT22;6175;50.956;11.064;2022-08-03T19:58:38;27.90;48.90
12225;DHT22;6175;50.956;11.064;2022-08-03T20:01:07;27.90;49.10
12225;DHT22;6175;50.956;11.064;2022-08-03T20:08:29;27.70;50.00
12225;DHT22;6175;50.956;11.064;2022-08-03T20:10:57;27.60;50.00
12225;DHT22;6175;50.956;11.064;2022-08-03T20:13:26;27.60;50.30
12225;DHT22;6175;50.956;11.064;2022-08-03T20:15:55;27.50;50.30
12225;DHT22;6175;50.956;11.064;2022-08-03T20:18:22;27.40;50.50
12225;DHT22;6175;50.956;11.064;2022-08-03T20:20:51;27.30;50.60
12225;DHT22;6175;50.956;11.064;2022-08-03T20:23:19;27.20;50.80
12225;DHT22;6175;50.956;11.064;2022-08-03T20:25:48;27.20;51.10
12225;DHT22;6175;50.956;11.064;2022-08-03T20:28:23;27.10;51.20
12225;DHT22;6175;50.956;11.064;2022-08-03T20:35:48;26.90;52.10
12225;DHT22;6175;50.956;11.064;2022-08-03T20:40:42;26.80;52.90
12225;DHT22;6175;50.956;11.064;2022-08-03T20:43:10;26.70;53.30
12225;DHT22;6175;50.956;11.064;2022-08-03T20:48:05;26.40;53.90
12225;DHT22;6175;50.956;11.064;2022-08-03T20:50:35;26.30;54.50
12225;DHT22;6175;50.956;11.064;2022-08-03T20:53:02;26.20;54.90
12225;DHT22;6175;50.956;11.064;2022-08-03T20:55:29;26.00;55.20
12225;DHT22;6175;50.956;11.064;2022-08-03T20:57:56;25.90;55.70
12225;DHT22;6175;50.956;11.064;2022-08-03T21:02:53;25.70;55.40
12225;DHT22;6175;50.956;11.064;2022-08-03T21:07:53;25.60;55.60
12225;DHT22;6175;50.956;11.064;2022-08-03T21:10:21;25.50;55.90
12225;DHT22;6175;50.956;11.064;2022-08-03T21:12:53;25.40;56.10
12225;DHT22;6175;50.956;11.064;2022-08-03T21:15:24;25.30;56.50
12225;DHT22;6175;50.956;11.064;2022-08-03T21:17:54;25.20;57.30
12225;DHT22;6175;50.956;11.064;2022-08-03T21:20:25;25.10;58.10
12225;DHT22;6175;50.956;11.064;2022-08-03T21:22:55;24.90;58.30
12225;DHT22;6175;50.956;11.064;2022-08-03T21:25:23;24.80;58.80
12225;DHT22;6175;50.956;11.064;2022-08-03T21:27:51;24.70;59.50
12225;DHT22;6175;50.956;11.064;2022-08-03T21:30:19;24.50;59.80
12225;DHT22;6175;50.956;11.064;2022-08-03T21:32:48;24.50;60.50
12225;DHT22;6175;50.956;11.064;2022-08-03T21:35:16;24.40;61.00
12225;DHT22;6175;50.956;11.064;2022-08-03T21:37:44;24.30;61.50
12225;DHT22;6175;50.956;11.064;2022-08-03T21:40:14;24.20;61.70
12225;DHT22;6175;50.956;11.064;2022-08-03T21:42:43;24.10;62.10
12225;DHT22;6175;50.956;11.064;2022-08-03T21:45:12;24.10;62.60
12225;DHT22;6175;50.956;11.064;2022-08-03T21:47:40;24.00;62.70
12225;DHT22;6175;50.956;11.064;2022-08-03T21:50:11;24.00;62.90
12225;DHT22;6175;50.956;11.064;2022-08-03T21:52:41;24.00;63.40
12225;DHT22;6175;50.956;11.064;2022-08-03T21:55:09;23.90;63.60
12225;DHT22;6175;50.956;11.064;2022-08-03T21:57:38;23.90;64.10
12225;DHT22;6175;50.956;11.064;2022-08-03T22:00:10;23.90;64.30
12225;DHT22;6175;50.956;11.064;2022-08-03T22:02:39;23.80;64.60
12225;DHT22;6175;50.956;11.064;2022-08-03T22:07:34;23.70;65.00
12225;DHT22;6175;50.956;11.064;2022-08-03T22:10:04;23.70;65.30
12225;DHT22;6175;50.956;11.064;2022-08-03T22:15:01;23.60;65.80
12225;DHT22;6175;50.956;11.064;2022-08-03T22:17:30;23.60;66.00
12225;DHT22;6175;50.956;11.064;2022-08-03T22:22:27;23.40;66.40
12225;DHT22;6175;50.956;11.064;2022-08-03T22:24:57;23.40;66.90
12225;DHT22;6175;50.956;11.064;2022-08-03T22:27:26;23.40;67.30